createdAt,value
2023-04-02T00:00:21.338Z,7.10
2023-04-02T00:03:08.846Z,7.10
2023-04-02T00:05:55.519Z,7.10
2023-04-02T00:08:41.103Z,7.10
2023-04-02T00:11:10.601Z,7.10
2023-04-02T00:13:42.487Z,7.00
2023-04-02T00:16:15.812Z,7.00
2023-04-02T00:18:48.609Z,7.00
2023-04-02T00:21:23.874Z,6.90
2023-04-02T00:23:56.701Z,6.90
2023-04-02T00:26:31.806Z,6.80
2023-04-02T00:29:01.165Z,6.80
2023-04-02T00:31:29.572Z,6.80
2023-04-02T00:33:59.641Z,6.80
2023-04-02T00:36:33.946Z,6.80
2023-04-02T00:39:06.013Z,6.70
2023-04-02T00:41:36.153Z,6.70
2023-04-02T00:44:05.946Z,6.60
2023-04-02T00:46:46.955Z,6.60
2023-04-02T00:49:24.001Z,6.60
2023-04-02T00:51:58.031Z,6.60
2023-04-02T00:54:32.738Z,6.50
2023-04-02T00:57:02.536Z,6.50
2023-04-02T00:59:35.638Z,6.50
2023-04-02T01:02:29.170Z,6.50
2023-04-02T01:05:00.384Z,6.50
2023-04-02T01:07:51.701Z,6.50
2023-04-02T01:10:45.487Z,6.50
2023-04-02T01:13:25.485Z,6.50
2023-04-02T01:16:02.632Z,6.50
2023-04-02T01:18:46.677Z,6.50
2023-04-02T01:21:42.105Z,6.50
2023-04-02T01:24:13.492Z,6.50
2023-04-02T01:26:53.502Z,6.50
2023-04-02T01:29:25.800Z,6.50
2023-04-02T01:31:57.105Z,6.50
2023-04-02T01:34:28.344Z,6.50
2023-04-02T01:37:32.252Z,6.50
2023-04-02T01:40:28.404Z,6.50
2023-04-02T01:43:06.500Z,6.40
2023-04-02T01:45:36.888Z,6.30
2023-04-02T01:48:10.186Z,6.40
2023-04-02T01:50:40.347Z,6.30
2023-04-02T01:53:13.663Z,6.20
2023-04-02T01:55:46.861Z,6.30
2023-04-02T01:58:19.586Z,6.20
2023-04-02T02:00:54.258Z,6.20
2023-04-02T02:03:23.265Z,6.20
2023-04-02T02:05:52.410Z,6.20
2023-04-02T02:08:34.593Z,6.20
2023-04-02T02:11:04.939Z,6.20
2023-04-02T02:13:33.579Z,6.20
2023-04-02T02:16:12.663Z,6.20
2023-04-02T02:18:41.070Z,6.20
2023-04-02T02:21:10.315Z,6.10
2023-04-02T02:23:38.766Z,6.10
2023-04-02T02:26:08.111Z,6.10
2023-04-02T02:28:42.520Z,6.00
2023-04-02T02:31:19.645Z,6.10
2023-04-02T02:33:52.617Z,6.00
2023-04-02T02:36:28.055Z,6.00
2023-04-02T02:38:58.468Z,6.00
2023-04-02T02:41:35.084Z,6.00
2023-04-02T02:44:07.659Z,6.00
2023-04-02T02:46:41.566Z,5.90
2023-04-02T02:49:16.573Z,5.90
2023-04-02T02:51:49.816Z,5.90
2023-04-02T02:54:19.890Z,5.90
2023-04-02T02:56:51.978Z,5.90
2023-04-02T02:59:22.326Z,5.90
2023-04-02T03:01:53.431Z,5.90
2023-04-02T03:04:22.929Z,5.90
2023-04-02T03:06:53.754Z,5.90
2023-04-02T03:09:35.248Z,5.90
2023-04-02T03:12:13.242Z,5.80
2023-04-02T03:14:48.085Z,5.80
2023-04-02T03:17:21.969Z,5.80
2023-04-02T03:19:59.424Z,5.80
2023-04-02T03:22:35.929Z,5.80
2023-04-02T03:25:21.372Z,5.70
2023-04-02T03:27:53.104Z,5.70
2023-04-02T03:30:31.647Z,5.70
2023-04-02T03:33:06.357Z,5.70
2023-04-02T03:35:41.683Z,5.70
2023-04-02T03:38:17.398Z,5.70
2023-04-02T03:40:58.409Z,5.60
2023-04-02T03:43:28.452Z,5.70
2023-04-02T03:46:02.032Z,5.60
2023-04-02T03:48:40.479Z,5.70
2023-04-02T03:51:16.320Z,5.60
2023-04-02T03:53:45.880Z,5.60
2023-04-02T03:56:28.501Z,5.60
2023-04-02T03:59:08.350Z,5.60
2023-04-02T04:01:44.606Z,5.50
2023-04-02T04:04:19.454Z,5.50
2023-04-02T04:06:53.443Z,5.50
2023-04-02T04:09:28.076Z,5.50
2023-04-02T04:12:10.802Z,5.40
2023-04-02T04:14:45.915Z,5.30
2023-04-02T04:17:23.748Z,5.40
2023-04-02T04:20:00.525Z,5.30
2023-04-02T04:22:31.833Z,5.30
2023-04-02T04:25:02.657Z,5.30
2023-04-02T04:27:42.782Z,5.30
2023-04-02T04:30:23.056Z,5.30
2023-04-02T04:32:58.462Z,5.20
2023-04-02T04:35:33.031Z,5.20
2023-04-02T04:38:07.714Z,5.10
2023-04-02T04:40:39.218Z,5.10
2023-04-02T04:43:15.156Z,5.20
2023-04-02T04:45:51.155Z,5.20
2023-04-02T04:48:23.218Z,5.10
2023-04-02T04:50:58.913Z,5.00
2023-04-02T04:53:31.033Z,5.00
2023-04-02T04:56:12.513Z,5.00
2023-04-02T04:58:51.859Z,5.00
2023-04-02T05:01:25.646Z,4.90
2023-04-02T05:04:02.058Z,4.90
2023-04-02T05:06:40.979Z,4.90
2023-04-02T05:09:19.569Z,4.90
2023-04-02T05:12:03.424Z,4.90
2023-04-02T05:14:37.942Z,4.90
2023-04-02T05:17:10.779Z,4.90
2023-04-02T05:19:46.198Z,4.90
2023-04-02T05:22:27.664Z,4.90
2023-04-02T05:25:11.363Z,4.90
2023-04-02T05:27:46.078Z,4.80
2023-04-02T05:30:40.502Z,4.80
2023-04-02T05:33:23.422Z,4.80
2023-04-02T05:36:04.982Z,4.80
2023-04-02T05:38:38.051Z,4.70
2023-04-02T05:41:16.128Z,4.70
2023-04-02T05:43:49.176Z,4.70
2023-04-02T05:46:19.888Z,4.70
2023-04-02T05:48:52.181Z,4.60
2023-04-02T05:51:25.738Z,4.50
2023-04-02T05:53:58.571Z,4.50
2023-04-02T05:56:31.459Z,4.60
2023-04-02T05:59:07.656Z,4.50
2023-04-02T06:01:43.045Z,4.40
2023-04-02T06:04:22.042Z,4.40
2023-04-02T06:06:59.296Z,4.40
2023-04-02T06:09:39.465Z,4.40
2023-04-02T06:12:25.900Z,4.40
2023-04-02T06:14:54.582Z,4.40
2023-04-02T06:17:23.395Z,4.30
2023-04-02T06:19:54.151Z,4.30
2023-04-02T06:22:28.317Z,4.30
2023-04-02T06:25:04.742Z,4.30
2023-04-02T06:27:35.009Z,4.20
2023-04-02T06:30:11.713Z,4.20
2023-04-02T06:32:39.996Z,4.20
2023-04-02T06:35:12.914Z,4.20
2023-04-02T06:37:44.629Z,4.20
2023-04-02T06:40:35.585Z,4.10
2023-04-02T06:43:10.047Z,4.10
2023-04-02T06:45:43.808Z,4.10
2023-04-02T06:48:19.035Z,4.10
2023-04-02T06:50:50.622Z,4.10
2023-04-02T06:53:24.979Z,4.10
2023-04-02T06:56:01.947Z,4.00
2023-04-02T06:58:30.230Z,4.10
2023-04-02T07:00:58.771Z,4.10
2023-04-02T07:03:29.184Z,4.10
2023-04-02T07:05:58.489Z,4.10
2023-04-02T07:08:27.062Z,4.10
2023-04-02T07:10:57.336Z,4.00
2023-04-02T07:13:26.676Z,4.10
2023-04-02T07:15:56.599Z,4.10
2023-04-02T07:18:28.609Z,4.10
2023-04-02T07:20:57.277Z,4.10
2023-04-02T07:23:26.260Z,4.10
2023-04-02T07:25:57.504Z,4.00
2023-04-02T07:28:26.167Z,4.10
2023-04-02T07:30:55.048Z,4.10
2023-04-02T07:33:26.839Z,4.10
2023-04-02T07:35:57.884Z,4.00
2023-04-02T07:38:26.278Z,4.00
2023-04-02T07:40:55.934Z,4.00
2023-04-02T07:43:24.569Z,4.10
2023-04-02T07:45:52.789Z,4.10
2023-04-02T07:48:21.082Z,4.10
2023-04-02T07:50:49.324Z,4.10
2023-04-02T07:53:30.610Z,4.10
2023-04-02T07:56:02.934Z,4.10
2023-04-02T07:58:32.237Z,4.10
2023-04-02T08:01:01.701Z,4.10
2023-04-02T08:03:30.192Z,4.10
2023-04-02T08:05:59.867Z,4.10
2023-04-02T08:08:28.090Z,4.10
2023-04-02T08:10:56.525Z,4.10
2023-04-02T08:13:26.333Z,4.20
2023-04-02T08:15:54.768Z,4.10
2023-04-02T08:18:24.673Z,4.10
2023-04-02T08:20:53.673Z,4.10
2023-04-02T08:23:22.371Z,4.10
2023-04-02T08:25:51.416Z,4.10
2023-04-02T08:28:19.877Z,4.00
2023-04-02T08:30:50.090Z,4.00
2023-04-02T08:33:19.070Z,4.00
2023-04-02T08:35:47.921Z,4.00
2023-04-02T08:38:21.741Z,4.10
2023-04-02T08:40:52.648Z,4.10
2023-04-02T08:43:42.793Z,4.20
2023-04-02T08:46:20.899Z,4.20
2023-04-02T08:48:56.970Z,4.30
2023-04-02T08:51:28.239Z,4.40
2023-04-02T08:54:01.587Z,4.50
2023-04-02T08:56:37.894Z,4.50
2023-04-02T08:59:18.271Z,4.50
2023-04-02T09:01:54.303Z,4.50
2023-04-02T09:04:25.847Z,4.50
2023-04-02T09:06:57.698Z,4.50
2023-04-02T09:09:26.729Z,4.50
2023-04-02T09:12:00.710Z,4.50
2023-04-02T09:14:44.300Z,4.60
2023-04-02T09:17:20.546Z,4.50
2023-04-02T09:19:57.530Z,4.50
2023-04-02T09:22:27.877Z,4.50
2023-04-02T09:24:58.288Z,4.50
2023-04-02T09:27:29.340Z,4.50
2023-04-02T09:30:03.941Z,4.50
2023-04-02T09:32:47.583Z,4.50
2023-04-02T09:35:26.242Z,4.50
2023-04-02T09:38:22.073Z,4.50
2023-04-02T09:40:55.606Z,4.60
2023-04-02T09:43:26.299Z,4.60
2023-04-02T09:46:01.580Z,4.60
2023-04-02T09:48:34.353Z,4.60
2023-04-02T09:51:15.382Z,4.60
2023-04-02T09:53:47.229Z,4.70
2023-04-02T09:56:19.335Z,4.70
2023-04-02T09:59:05.132Z,4.70
2023-04-02T10:01:35.670Z,4.80
2023-04-02T10:04:08.251Z,4.80
2023-04-02T10:06:36.789Z,4.80
2023-04-02T10:09:30.292Z,4.80
2023-04-02T10:11:59.848Z,4.80
2023-04-02T10:14:32.642Z,4.90
2023-04-02T10:17:08.171Z,4.90
2023-04-02T10:19:41.455Z,4.90
2023-04-02T10:22:15.955Z,4.90
2023-04-02T10:24:44.302Z,5.00
2023-04-02T10:27:25.601Z,5.00
2023-04-02T10:30:11.124Z,5.00
2023-04-02T10:32:45.951Z,5.00
2023-04-02T10:35:39.676Z,5.00
2023-04-02T10:38:44.526Z,5.00
2023-04-02T10:41:32.496Z,5.00
2023-04-02T10:44:24.081Z,5.00
2023-04-02T10:47:05.574Z,5.00
2023-04-02T10:49:43.215Z,5.00
2023-04-02T10:52:21.232Z,5.00
2023-04-02T10:54:52.417Z,5.00
2023-04-02T10:57:31.945Z,5.00
2023-04-02T11:00:17.086Z,5.00
2023-04-02T11:02:53.904Z,5.00
2023-04-02T11:05:32.251Z,5.10
2023-04-02T11:08:13.118Z,5.10
2023-04-02T11:10:48.711Z,5.10
2023-04-02T11:13:24.856Z,5.10
2023-04-02T11:15:53.944Z,5.10
2023-04-02T11:18:32.675Z,5.20
2023-04-02T11:21:07.481Z,5.20
2023-04-02T11:23:55.599Z,5.20
2023-04-02T11:26:41.283Z,5.20
2023-04-02T11:29:27.441Z,5.30
2023-04-02T11:32:31.180Z,5.30
2023-04-02T11:35:27.238Z,5.30
2023-04-02T11:37:57.792Z,5.50
2023-04-02T11:40:52.221Z,5.50
2023-04-02T11:43:50.940Z,5.50
2023-04-02T11:46:45.522Z,5.40
2023-04-02T11:50:04.480Z,5.50
2023-04-02T11:52:37.885Z,5.50
2023-04-02T11:55:24.299Z,5.60
2023-04-02T11:58:26.847Z,5.70
2023-04-02T12:01:43.947Z,5.80
2023-04-02T12:04:41.253Z,5.80
2023-04-02T12:07:46.715Z,5.90
2023-04-02T12:10:19.964Z,5.80
2023-04-02T12:12:49.337Z,5.80
2023-04-02T12:15:46.748Z,5.90
2023-04-02T12:18:18.870Z,5.90
2023-04-02T12:20:53.740Z,5.90
2023-04-02T12:23:24.854Z,5.90
2023-04-02T12:25:59.457Z,6.00
2023-04-02T12:28:29.976Z,6.10
2023-04-02T12:31:13.685Z,6.00
2023-04-02T12:33:42.821Z,6.00
2023-04-02T12:36:21.905Z,6.00
2023-04-02T12:38:52.927Z,6.00
2023-04-02T12:41:27.017Z,6.00
2023-04-02T12:43:59.676Z,6.10
2023-04-02T12:46:31.106Z,6.10
2023-04-02T12:49:06.140Z,6.10
2023-04-02T12:51:35.781Z,6.10
2023-04-02T12:54:05.070Z,6.10
2023-04-02T12:56:33.524Z,6.10
2023-04-02T12:59:02.521Z,6.20
2023-04-02T13:01:33.984Z,6.20
2023-04-02T13:04:07.645Z,6.20
2023-04-02T13:06:37.548Z,6.20
2023-04-02T13:09:08.238Z,6.20
2023-04-02T13:11:38.448Z,6.20
2023-04-02T13:14:09.818Z,6.20
2023-04-02T13:16:40.983Z,6.20
2023-04-02T13:19:27.801Z,6.20
2023-04-02T13:21:58.066Z,6.30
2023-04-02T13:24:28.358Z,6.20
2023-04-02T13:26:58.974Z,6.30
2023-04-02T13:29:31.395Z,6.40
2023-04-02T13:32:03.232Z,6.50
2023-04-02T13:34:32.149Z,6.60
2023-04-02T13:37:00.806Z,6.70
2023-04-02T13:39:30.318Z,6.60
2023-04-02T13:42:00.665Z,6.60
2023-04-02T13:44:31.549Z,6.50
2023-04-02T13:47:01.956Z,6.50
2023-04-02T13:49:30.893Z,6.40
2023-04-02T13:52:03.219Z,6.40
2023-04-02T13:54:37.440Z,6.40
2023-04-02T13:57:06.317Z,6.30
2023-04-02T13:59:34.638Z,6.20
2023-04-02T14:02:10.407Z,6.20
2023-04-02T14:04:45.220Z,6.20
2023-04-02T14:07:37.498Z,6.20
2023-04-02T14:10:24.309Z,6.10
2023-04-02T14:13:15.461Z,6.10
2023-04-02T14:16:04.150Z,6.10
2023-04-02T14:18:52.773Z,6.30
2023-04-02T14:21:35.760Z,6.50
2023-04-02T14:24:19.672Z,6.60
2023-04-02T14:27:04.443Z,6.80
2023-04-02T14:29:39.366Z,6.70
2023-04-02T14:32:11.699Z,6.70
2023-04-02T14:34:50.045Z,6.80
2023-04-02T14:37:26.828Z,7.00
2023-04-02T14:40:07.377Z,7.10
2023-04-02T14:42:42.369Z,7.00
2023-04-02T14:45:18.405Z,7.10
2023-04-02T14:47:53.493Z,7.10
2023-04-02T14:50:29.572Z,7.10
2023-04-02T14:53:05.508Z,7.10
2023-04-02T14:55:39.384Z,7.10
2023-04-02T14:58:16.736Z,7.20
2023-04-02T15:00:54.032Z,7.30
2023-04-02T15:03:25.857Z,7.40
2023-04-02T15:05:59.601Z,7.50
2023-04-02T15:08:30.644Z,7.40
2023-04-02T15:11:08.049Z,7.50
2023-04-02T15:13:42.526Z,7.50
2023-04-02T15:16:16.394Z,7.60
2023-04-02T15:18:44.685Z,7.70
2023-04-02T15:21:40.778Z,7.70
2023-04-02T15:24:21.867Z,7.70
2023-04-02T15:27:03.905Z,7.70
2023-04-02T15:29:46.246Z,7.70
2023-04-02T15:32:28.516Z,7.70
2023-04-02T15:35:03.136Z,7.70
2023-04-02T15:37:37.579Z,7.70
2023-04-02T15:40:36.484Z,7.70
2023-04-02T15:43:17.503Z,7.70
2023-04-02T15:45:59.976Z,7.80
2023-04-02T15:49:07.134Z,7.90
2023-04-02T15:52:01.482Z,7.80
2023-04-02T15:54:53.700Z,7.80
2023-04-02T15:57:43.465Z,7.90
2023-04-02T16:00:23.045Z,7.80
2023-04-02T16:03:32.142Z,7.80
2023-04-02T16:06:17.847Z,7.70
2023-04-02T16:09:01.186Z,7.60
2023-04-02T16:11:31.024Z,7.60
2023-04-02T16:14:12.056Z,7.50
2023-04-02T16:16:41.775Z,7.40
2023-04-02T16:19:17.213Z,7.40
2023-04-02T16:21:53.156Z,7.40
2023-04-02T16:24:22.790Z,7.40
2023-04-02T16:27:01.333Z,7.40
2023-04-02T16:29:59.923Z,7.40
2023-04-02T16:32:48.793Z,7.40
2023-04-02T16:38:16.923Z,7.40
2023-04-02T16:41:07.051Z,7.30
2023-04-02T16:43:42.351Z,7.30
2023-04-02T16:46:28.228Z,7.30
2023-04-02T16:49:20.874Z,7.30
2023-04-02T16:52:02.158Z,7.30
2023-04-02T16:54:37.226Z,7.40
2023-04-02T16:57:31.399Z,7.30
2023-04-02T17:00:14.712Z,7.30
2023-04-02T17:02:56.109Z,7.20
2023-04-02T17:05:33.021Z,7.20
2023-04-02T17:08:18.949Z,7.20
2023-04-02T17:10:52.752Z,7.10
2023-04-02T17:13:29.813Z,7.10
2023-04-02T17:16:10.671Z,7.00
2023-04-02T17:18:40.153Z,7.00
2023-04-02T17:21:14.866Z,7.00
2023-04-02T17:26:24.564Z,6.90
2023-04-02T17:28:54.092Z,6.90
2023-04-02T17:31:26.411Z,6.80
2023-04-02T17:33:54.903Z,6.80
2023-04-02T17:36:38.221Z,6.80
2023-04-02T17:39:22.075Z,6.70
2023-04-02T17:42:00.018Z,6.70
2023-04-02T17:44:48.906Z,6.70
2023-04-02T17:47:23.358Z,6.70
2023-04-02T17:50:18.832Z,6.60
2023-04-02T17:52:53.401Z,6.60
2023-04-02T17:55:31.836Z,6.60
2023-04-02T17:58:09.703Z,6.50
2023-04-02T18:00:52.347Z,6.50
2023-04-02T18:03:47.539Z,6.50
2023-04-02T18:06:21.036Z,6.50
2023-04-02T18:09:08.547Z,6.50
2023-04-02T18:11:48.168Z,6.50
2023-04-02T18:14:39.709Z,6.40
2023-04-02T18:17:17.017Z,6.40
2023-04-02T18:19:55.561Z,6.40
2023-04-02T18:22:33.019Z,6.30
2023-04-02T18:25:36.621Z,6.20
2023-04-02T18:28:36.620Z,6.20
2023-04-02T18:31:14.703Z,6.20
2023-04-02T18:34:33.733Z,6.20
2023-04-02T18:37:21.244Z,6.10
2023-04-02T18:40:04.932Z,6.10
2023-04-02T18:42:49.114Z,6.10
2023-04-02T18:45:23.806Z,6.00
2023-04-02T18:48:03.766Z,6.00
2023-04-02T18:50:35.312Z,5.90
2023-04-02T18:53:13.745Z,5.90
2023-04-02T18:55:48.961Z,5.80
2023-04-02T18:58:25.790Z,5.80
2023-04-02T19:00:54.732Z,5.80
2023-04-02T19:03:29.110Z,5.70
2023-04-02T19:06:02.962Z,5.70
2023-04-02T19:08:40.529Z,5.60
2023-04-02T19:11:15.557Z,5.60
2023-04-02T19:13:45.096Z,5.50
2023-04-02T19:16:48.371Z,5.40
2023-04-02T19:19:21.285Z,5.30
2023-04-02T19:22:18.015Z,5.30
2023-04-02T19:25:21.755Z,5.30
2023-04-02T19:28:07.949Z,5.20
2023-04-02T19:30:57.701Z,5.20
2023-04-02T19:33:46.921Z,5.10
2023-04-02T19:36:41.488Z,5.00
2023-04-02T19:39:39.648Z,4.90
2023-04-02T19:42:20.125Z,4.90
2023-04-02T19:44:51.822Z,4.90
2023-04-02T19:47:21.357Z,4.90
2023-04-02T19:49:49.880Z,4.90
2023-04-02T19:52:19.480Z,4.80
2023-04-02T19:54:47.937Z,4.80
2023-04-02T19:57:17.972Z,4.60
2023-04-02T19:59:46.254Z,4.50
2023-04-02T20:02:14.557Z,4.40
2023-04-02T20:04:42.870Z,4.40
2023-04-02T20:07:11.206Z,4.30
2023-04-02T20:09:39.560Z,4.20
2023-04-02T20:12:08.145Z,4.10
2023-04-02T20:14:37.786Z,4.00
2023-04-02T20:17:06.385Z,3.90
2023-04-02T20:19:34.907Z,3.90
2023-04-02T20:22:03.234Z,3.80
2023-04-02T20:24:31.535Z,3.90
2023-04-02T20:26:59.870Z,3.80
2023-04-02T20:29:30.377Z,3.80
2023-04-02T20:32:00.377Z,3.80
2023-04-02T20:34:28.817Z,3.70
2023-04-02T20:36:57.410Z,3.70
2023-04-02T20:39:25.768Z,3.70
2023-04-02T20:41:54.337Z,3.60
2023-04-02T20:44:22.843Z,3.60
2023-04-02T20:46:51.232Z,3.60
2023-04-02T20:49:21.236Z,3.50
2023-04-02T20:51:49.640Z,3.40
2023-04-02T20:54:18.029Z,3.40
2023-04-02T20:56:46.337Z,3.40
2023-04-02T20:59:14.668Z,3.30
2023-04-02T21:01:43.298Z,3.30
2023-04-02T21:04:11.794Z,3.20
2023-04-02T21:06:42.109Z,3.20
2023-04-02T21:09:16.319Z,3.10
2023-04-02T21:11:46.470Z,3.10
2023-04-02T21:14:14.868Z,3.00
2023-04-02T21:16:43.249Z,2.90
2023-04-02T21:19:12.338Z,2.90
2023-04-02T21:21:44.160Z,2.90
2023-04-02T21:24:12.841Z,2.80
2023-04-02T21:26:42.568Z,2.70
2023-04-02T21:29:13.131Z,2.70
2023-04-02T21:31:42.446Z,2.60
2023-04-02T21:34:15.021Z,2.60
2023-04-02T21:36:46.752Z,2.50
2023-04-02T21:39:21.172Z,2.50
2023-04-02T21:41:51.895Z,2.40
2023-04-02T21:44:22.372Z,2.40
2023-04-02T21:46:53.012Z,2.40
2023-04-02T21:49:23.215Z,2.40
2023-04-02T21:51:53.216Z,2.40
2023-04-02T21:54:21.584Z,2.40
2023-04-02T21:56:50.661Z,2.40
2023-04-02T21:59:19.655Z,2.30
2023-04-02T22:01:50.369Z,2.30
2023-04-02T22:04:20.867Z,2.30
2023-04-02T22:06:50.655Z,2.30
2023-04-02T22:09:23.452Z,2.20
2023-04-02T22:11:55.563Z,2.10
2023-04-02T22:14:25.472Z,2.10
2023-04-02T22:16:53.845Z,2.10
2023-04-02T22:19:22.577Z,2.10
2023-04-02T22:21:50.931Z,2.00
2023-04-02T22:24:22.100Z,2.00
2023-04-02T22:26:50.444Z,1.90
2023-04-02T22:29:18.744Z,1.90
2023-04-02T22:31:48.096Z,1.90
2023-04-02T22:34:16.492Z,1.90
2023-04-02T22:36:44.827Z,1.90
2023-04-02T22:39:13.460Z,1.90
2023-04-02T22:41:43.336Z,1.90
2023-04-02T22:44:16.293Z,1.80
2023-04-02T22:46:44.812Z,1.70
2023-04-02T22:49:19.114Z,1.70
2023-04-02T22:51:47.864Z,1.60
2023-04-02T22:54:16.420Z,1.60
2023-04-02T22:56:46.062Z,1.60
2023-04-02T22:59:14.850Z,1.60
2023-04-02T23:01:43.502Z,1.60
2023-04-02T23:04:12.149Z,1.70
2023-04-02T23:06:40.718Z,1.70
2023-04-02T23:09:09.439Z,1.70
2023-04-02T23:11:37.900Z,1.70
2023-04-02T23:14:07.529Z,1.70
2023-04-02T23:16:35.926Z,1.70
2023-04-02T23:19:04.962Z,1.70
2023-04-02T23:21:33.306Z,1.60
2023-04-02T23:24:01.842Z,1.60
2023-04-02T23:26:31.849Z,1.60
2023-04-02T23:29:01.959Z,1.60
2023-04-02T23:31:31.854Z,1.60
2023-04-02T23:34:00.495Z,1.60
2023-04-02T23:36:31.984Z,1.60
2023-04-02T23:39:04.037Z,1.60
2023-04-02T23:41:33.469Z,1.60
2023-04-02T23:44:01.971Z,1.50
2023-04-02T23:46:32.267Z,1.50
2023-04-02T23:49:02.253Z,1.50
2023-04-02T23:51:32.432Z,1.40
2023-04-02T23:54:01.137Z,1.40
2023-04-02T23:56:29.533Z,1.40
2023-04-02T23:58:57.775Z,1.40
